Tracys Landing, Maryland
Current Conditions -  °F | °C
As of 4:54 AM on Thursday 23 Oct 2014 (Local Time) from KNAK Reporting Station
Overcast Overcast  
Wind Chill: 54°   Ceiling: 3900
Heat Index: 54°   Visibility: 10mi
Dew Point: 44°   Wind: 16mph
Humidity: 69%   Direction: 310°NW
Pressure: 29.83"   Gusts: 22mph
Location:  38.78°N, 76.6°W
Report Text: KNAK 230854Z AUTO 31014G19KT 10SM OVC039 12/07 A2983 RMK AO2 SLP105 T01220067 55006
Loading
Personal Weather Stations






























Interactive Weather Map
Tropical Storm Tracking
New forecast layout! Learn more

10-Day Weather Forecast

Advertisements
Track Severe Weather on mobile